Stella, Wisconsin
Current Conditions -  °F | °C
As of 9:53 AM on Wednesday 28 Jan 2015 (Local Time) from KRHI Reporting Station
Haze Haze  
Wind Chill: 15°   Ceiling: 700
Heat Index: 23°   Visibility: 5mi
Dew Point: 20°   Wind: 7mph
Humidity: 88%   Direction: 160°SSE
Pressure: 30.07"   Gusts: NA
Location:  45.6521°N, 89.3386°W
Report Text: KRHI 281553Z AUTO 16006KT 5SM BR OVC007 M05/M07 A3007 RMK AO2 SLP207 T10501067
Loading
Personal Weather Stations






























Interactive Weather Map New forecast layout! Learn more

10-Day Weather Forecast

Advertisements
Track Severe Weather on mobile